sensor_id;sensor_type;location;lat;lon;timestamp;temperature;humidity
212;DHT22;16228;48.800;9.002;2023-03-12T00:01:19;-1.70;96.90
212;DHT22;16228;48.800;9.002;2023-03-12T00:03:47;-1.70;96.90
212;DHT22;16228;48.800;9.002;2023-03-12T00:06:14;-1.70;96.90
212;DHT22;16228;48.800;9.002;2023-03-12T00:08:43;-1.70;96.90
212;DHT22;16228;48.800;9.002;2023-03-12T00:11:14;-1.70;96.90
212;DHT22;16228;48.800;9.002;2023-03-12T00:13:42;-1.80;96.90
212;DHT22;16228;48.800;9.002;2023-03-12T00:16:10;-1.80;96.90
212;DHT22;16228;48.800;9.002;2023-03-12T00:18:38;-1.80;96.90
212;DHT22;16228;48.800;9.002;2023-03-12T00:21:06;-1.90;96.90
212;DHT22;16228;48.800;9.002;2023-03-12T00:23:34;-2.00;96.90
212;DHT22;16228;48.800;9.002;2023-03-12T00:26:05;-2.00;96.90
212;DHT22;16228;48.800;9.002;2023-03-12T00:28:32;-2.10;96.90
212;DHT22;16228;48.800;9.002;2023-03-12T00:31:00;-2.10;96.90
212;DHT22;16228;48.800;9.002;2023-03-12T00:33:28;-2.10;96.90
212;DHT22;16228;48.800;9.002;2023-03-12T00:35:58;-2.10;96.90
212;DHT22;16228;48.800;9.002;2023-03-12T00:38:25;-2.10;96.90
212;DHT22;16228;48.800;9.002;2023-03-12T00:40:52;-2.00;96.90
212;DHT22;16228;48.800;9.002;2023-03-12T00:43:21;-2.00;96.90
212;DHT22;16228;48.800;9.002;2023-03-12T00:45:48;-2.00;96.90
212;DHT22;16228;48.800;9.002;2023-03-12T00:48:15;-2.00;96.90
212;DHT22;16228;48.800;9.002;2023-03-12T00:50:42;-2.00;96.90
212;DHT22;16228;48.800;9.002;2023-03-12T00:53:10;-2.00;96.90
212;DHT22;16228;48.800;9.002;2023-03-12T00:55:37;-2.00;96.90
212;DHT22;16228;48.800;9.002;2023-03-12T00:58:07;-1.90;96.90
212;DHT22;16228;48.800;9.002;2023-03-12T01:00:35;-1.90;96.90
212;DHT22;16228;48.800;9.002;2023-03-12T01:03:03;-1.80;96.90
212;DHT22;16228;48.800;9.002;2023-03-12T01:05:30;-1.80;96.90
212;DHT22;16228;48.800;9.002;2023-03-12T01:08:03;-1.70;96.90
212;DHT22;16228;48.800;9.002;2023-03-12T01:10:30;-1.70;96.90
212;DHT22;16228;48.800;9.002;2023-03-12T01:12:57;-1.70;96.90
212;DHT22;16228;48.800;9.002;2023-03-12T01:15:25;-1.60;96.90
212;DHT22;16228;48.800;9.002;2023-03-12T01:17:53;-1.60;96.90
212;DHT22;16228;48.800;9.002;2023-03-12T01:20:20;-1.60;96.90
212;DHT22;16228;48.800;9.002;2023-03-12T01:22:49;-1.50;96.90
212;DHT22;16228;48.800;9.002;2023-03-12T01:25:16;-1.50;96.90
212;DHT22;16228;48.800;9.002;2023-03-12T01:27:44;-1.50;96.90
212;DHT22;16228;48.800;9.002;2023-03-12T01:30:12;-1.60;96.90
212;DHT22;16228;48.800;9.002;2023-03-12T01:32:39;-1.60;96.90
212;DHT22;16228;48.800;9.002;2023-03-12T01:35:08;-1.50;96.90
212;DHT22;16228;48.800;9.002;2023-03-12T01:37:35;-1.40;96.90
212;DHT22;16228;48.800;9.002;2023-03-12T01:40:03;-1.40;96.90
212;DHT22;16228;48.800;9.002;2023-03-12T01:42:30;-1.30;96.90
212;DHT22;16228;48.800;9.002;2023-03-12T01:44:59;-1.20;96.90
212;DHT22;16228;48.800;9.002;2023-03-12T01:47:28;-1.20;96.90
212;DHT22;16228;48.800;9.002;2023-03-12T01:49:57;-1.10;96.90
212;DHT22;16228;48.800;9.002;2023-03-12T01:52:29;-1.10;96.90
212;DHT22;16228;48.800;9.002;2023-03-12T01:55:00;-1.00;96.90
212;DHT22;16228;48.800;9.002;2023-03-12T01:57:32;-0.90;96.90
212;DHT22;16228;48.800;9.002;2023-03-12T02:00:02;-0.90;96.90
212;DHT22;16228;48.800;9.002;2023-03-12T02:02:33;-0.90;96.90
212;DHT22;16228;48.800;9.002;2023-03-12T02:05:06;-0.90;96.90
212;DHT22;16228;48.800;9.002;2023-03-12T02:07:36;-0.90;96.90
212;DHT22;16228;48.800;9.002;2023-03-12T02:10:04;-0.80;96.90
212;DHT22;16228;48.800;9.002;2023-03-12T02:12:31;-0.80;96.90
212;DHT22;16228;48.800;9.002;2023-03-12T02:14:58;-0.80;96.90
212;DHT22;16228;48.800;9.002;2023-03-12T02:17:26;-0.80;96.90
212;DHT22;16228;48.800;9.002;2023-03-12T02:19:59;-0.80;96.90
212;DHT22;16228;48.800;9.002;2023-03-12T02:22:33;-0.80;96.90
212;DHT22;16228;48.800;9.002;2023-03-12T02:25:15;-0.80;96.90
212;DHT22;16228;48.800;9.002;2023-03-12T02:27:42;-0.80;96.90
212;DHT22;16228;48.800;9.002;2023-03-12T02:30:11;-0.80;96.90
212;DHT22;16228;48.800;9.002;2023-03-12T02:32:41;-0.80;96.90
212;DHT22;16228;48.800;9.002;2023-03-12T02:35:10;-0.80;96.90
212;DHT22;16228;48.800;9.002;2023-03-12T02:37:46;-0.80;96.90
212;DHT22;16228;48.800;9.002;2023-03-12T02:40:21;-0.80;96.90
212;DHT22;16228;48.800;9.002;2023-03-12T02:42:51;-0.80;96.90
212;DHT22;16228;48.800;9.002;2023-03-12T02:45:19;-0.70;96.90
212;DHT22;16228;48.800;9.002;2023-03-12T02:47:46;-0.70;96.90
212;DHT22;16228;48.800;9.002;2023-03-12T02:50:13;-0.60;96.90
212;DHT22;16228;48.800;9.002;2023-03-12T02:52:40;-0.60;96.90
212;DHT22;16228;48.800;9.002;2023-03-12T02:55:08;-0.60;96.90
212;DHT22;16228;48.800;9.002;2023-03-12T02:57:37;-0.60;96.90
212;DHT22;16228;48.800;9.002;2023-03-12T03:00:05;-0.70;96.90
212;DHT22;16228;48.800;9.002;2023-03-12T03:02:36;-0.70;96.90
212;DHT22;16228;48.800;9.002;2023-03-12T03:05:04;-0.70;96.90
212;DHT22;16228;48.800;9.002;2023-03-12T03:07:31;-0.80;96.90
212;DHT22;16228;48.800;9.002;2023-03-12T03:09:59;-0.80;96.90
212;DHT22;16228;48.800;9.002;2023-03-12T03:12:29;-0.70;96.90
212;DHT22;16228;48.800;9.002;2023-03-12T03:14:58;-0.70;96.90
212;DHT22;16228;48.800;9.002;2023-03-12T03:17:26;-0.70;96.90
212;DHT22;16228;48.800;9.002;2023-03-12T03:19:54;-0.70;96.90
212;DHT22;16228;48.800;9.002;2023-03-12T03:22:21;-0.60;96.90
212;DHT22;16228;48.800;9.002;2023-03-12T03:24:49;-0.60;96.90
212;DHT22;16228;48.800;9.002;2023-03-12T03:27:16;-0.60;96.90
212;DHT22;16228;48.800;9.002;2023-03-12T03:29:44;-0.50;96.90
212;DHT22;16228;48.800;9.002;2023-03-12T03:32:13;-0.50;96.90
212;DHT22;16228;48.800;9.002;2023-03-12T03:34:40;-0.40;96.90
212;DHT22;16228;48.800;9.002;2023-03-12T03:37:07;-0.30;96.90
212;DHT22;16228;48.800;9.002;2023-03-12T03:39:34;-0.30;96.90
212;DHT22;16228;48.800;9.002;2023-03-12T03:42:02;-0.20;96.90
212;DHT22;16228;48.800;9.002;2023-03-12T03:44:29;-0.10;96.90
212;DHT22;16228;48.800;9.002;2023-03-12T03:46:56;-0.10;96.90
212;DHT22;16228;48.800;9.002;2023-03-12T03:49:25;0.00;96.90
212;DHT22;16228;48.800;9.002;2023-03-12T03:51:52;0.00;96.90
212;DHT22;16228;48.800;9.002;2023-03-12T03:54:19;0.00;96.90
212;DHT22;16228;48.800;9.002;2023-03-12T03:56:47;0.00;96.90
212;DHT22;16228;48.800;9.002;2023-03-12T03:59:14;0.10;96.90
212;DHT22;16228;48.800;9.002;2023-03-12T04:01:41;0.10;96.90
212;DHT22;16228;48.800;9.002;2023-03-12T04:04:08;0.10;96.90
212;DHT22;16228;48.800;9.002;2023-03-12T04:06:36;0.10;96.90
212;DHT22;16228;48.800;9.002;2023-03-12T04:09:04;0.10;96.90
212;DHT22;16228;48.800;9.002;2023-03-12T04:11:31;0.20;96.90
212;DHT22;16228;48.800;9.002;2023-03-12T04:13:58;0.20;96.90
212;DHT22;16228;48.800;9.002;2023-03-12T04:16:26;0.30;96.90
212;DHT22;16228;48.800;9.002;2023-03-12T04:18:53;0.30;96.90
212;DHT22;16228;48.800;9.002;2023-03-12T04:21:20;0.30;96.90
212;DHT22;16228;48.800;9.002;2023-03-12T04:23:49;0.40;96.90
212;DHT22;16228;48.800;9.002;2023-03-12T04:26:16;0.40;96.90
212;DHT22;16228;48.800;9.002;2023-03-12T04:28:43;0.40;96.90
212;DHT22;16228;48.800;9.002;2023-03-12T04:31:11;0.40;96.90
212;DHT22;16228;48.800;9.002;2023-03-12T04:33:39;0.50;96.90
212;DHT22;16228;48.800;9.002;2023-03-12T04:36:06;0.60;96.90
212;DHT22;16228;48.800;9.002;2023-03-12T04:38:34;0.60;96.90
212;DHT22;16228;48.800;9.002;2023-03-12T04:41:04;0.60;96.90
212;DHT22;16228;48.800;9.002;2023-03-12T04:43:32;0.60;96.90
212;DHT22;16228;48.800;9.002;2023-03-12T04:46:00;0.70;96.90
212;DHT22;16228;48.800;9.002;2023-03-12T04:48:27;0.70;96.90
212;DHT22;16228;48.800;9.002;2023-03-12T04:50:54;0.70;96.90
212;DHT22;16228;48.800;9.002;2023-03-12T04:53:22;0.70;96.90
212;DHT22;16228;48.800;9.002;2023-03-12T04:55:49;0.80;96.90
212;DHT22;16228;48.800;9.002;2023-03-12T04:58:19;0.80;96.90
212;DHT22;16228;48.800;9.002;2023-03-12T05:00:47;0.80;96.90
212;DHT22;16228;48.800;9.002;2023-03-12T05:03:15;0.90;96.90
212;DHT22;16228;48.800;9.002;2023-03-12T05:05:42;0.90;96.90
212;DHT22;16228;48.800;9.002;2023-03-12T05:08:10;1.00;96.90
212;DHT22;16228;48.800;9.002;2023-03-12T05:10:37;1.00;96.90
212;DHT22;16228;48.800;9.002;2023-03-12T05:13:12;1.00;96.90
212;DHT22;16228;48.800;9.002;2023-03-12T05:15:41;1.00;96.90
212;DHT22;16228;48.800;9.002;2023-03-12T05:18:08;1.10;96.90
212;DHT22;16228;48.800;9.002;2023-03-12T05:20:35;1.20;96.90
212;DHT22;16228;48.800;9.002;2023-03-12T05:23:02;1.20;96.90
212;DHT22;16228;48.800;9.002;2023-03-12T05:25:29;1.30;96.90
212;DHT22;16228;48.800;9.002;2023-03-12T05:27:56;1.30;96.90
212;DHT22;16228;48.800;9.002;2023-03-12T05:30:24;1.30;96.90
212;DHT22;16228;48.800;9.002;2023-03-12T05:32:52;1.40;96.90
212;DHT22;16228;48.800;9.002;2023-03-12T05:35:19;1.40;96.90
212;DHT22;16228;48.800;9.002;2023-03-12T05:37:46;1.40;96.90
212;DHT22;16228;48.800;9.002;2023-03-12T05:40:13;1.50;96.90
212;DHT22;16228;48.800;9.002;2023-03-12T05:42:41;1.50;96.90
212;DHT22;16228;48.800;9.002;2023-03-12T05:45:09;1.60;96.90
212;DHT22;16228;48.800;9.002;2023-03-12T05:47:36;1.60;96.90
212;DHT22;16228;48.800;9.002;2023-03-12T05:50:06;1.60;96.90
212;DHT22;16228;48.800;9.002;2023-03-12T05:52:34;1.70;96.90
212;DHT22;16228;48.800;9.002;2023-03-12T05:55:01;1.70;96.90
212;DHT22;16228;48.800;9.002;2023-03-12T05:57:28;1.70;96.90
212;DHT22;16228;48.800;9.002;2023-03-12T05:59:55;1.70;96.90
212;DHT22;16228;48.800;9.002;2023-03-12T06:02:23;1.80;96.90
212;DHT22;16228;48.800;9.002;2023-03-12T06:04:50;1.80;96.90
212;DHT22;16228;48.800;9.002;2023-03-12T06:07:18;1.90;96.90
212;DHT22;16228;48.800;9.002;2023-03-12T06:09:46;1.90;96.90
212;DHT22;16228;48.800;9.002;2023-03-12T06:12:13;1.90;96.90
212;DHT22;16228;48.800;9.002;2023-03-12T06:14:40;1.90;96.90
212;DHT22;16228;48.800;9.002;2023-03-12T06:17:07;2.00;96.90
212;DHT22;16228;48.800;9.002;2023-03-12T06:19:34;2.10;96.90
212;DHT22;16228;48.800;9.002;2023-03-12T06:22:01;2.20;96.90
212;DHT22;16228;48.800;9.002;2023-03-12T06:24:30;2.10;96.90
212;DHT22;16228;48.800;9.002;2023-03-12T06:26:57;2.10;96.90
212;DHT22;16228;48.800;9.002;2023-03-12T06:29:24;2.20;96.90
212;DHT22;16228;48.800;9.002;2023-03-12T06:31:52;2.20;96.90
212;DHT22;16228;48.800;9.002;2023-03-12T06:34:20;2.30;96.90
212;DHT22;16228;48.800;9.002;2023-03-12T06:36:47;2.40;96.90
212;DHT22;16228;48.800;9.002;2023-03-12T06:39:14;2.40;96.90
212;DHT22;16228;48.800;9.002;2023-03-12T06:41:44;2.50;96.90
212;DHT22;16228;48.800;9.002;2023-03-12T06:44:11;2.60;96.90
212;DHT22;16228;48.800;9.002;2023-03-12T06:46:38;2.80;96.90
212;DHT22;16228;48.800;9.002;2023-03-12T06:49:06;2.90;96.90
212;DHT22;16228;48.800;9.002;2023-03-12T06:51:33;3.00;96.90
212;DHT22;16228;48.800;9.002;2023-03-12T06:54:00;3.10;96.90
212;DHT22;16228;48.800;9.002;2023-03-12T06:56:28;3.20;96.90
212;DHT22;16228;48.800;9.002;2023-03-12T06:58:56;3.30;96.90
212;DHT22;16228;48.800;9.002;2023-03-12T07:01:23;3.40;96.90
212;DHT22;16228;48.800;9.002;2023-03-12T07:03:51;3.40;96.90
212;DHT22;16228;48.800;9.002;2023-03-12T07:06:19;3.50;96.90
212;DHT22;16228;48.800;9.002;2023-03-12T07:08:47;3.60;96.90
212;DHT22;16228;48.800;9.002;2023-03-12T07:11:14;3.70;96.90
212;DHT22;16228;48.800;9.002;2023-03-12T07:13:42;3.80;96.90
212;DHT22;16228;48.800;9.002;2023-03-12T07:16:11;3.90;96.90
212;DHT22;16228;48.800;9.002;2023-03-12T07:18:38;3.90;96.90
212;DHT22;16228;48.800;9.002;2023-03-12T07:21:05;3.90;96.90
212;DHT22;16228;48.800;9.002;2023-03-12T07:23:33;4.00;96.90
212;DHT22;16228;48.800;9.002;2023-03-12T07:26:00;4.10;96.90
212;DHT22;16228;48.800;9.002;2023-03-12T07:28:27;4.10;96.90
212;DHT22;16228;48.800;9.002;2023-03-12T07:30:59;4.20;96.90
212;DHT22;16228;48.800;9.002;2023-03-12T07:33:28;4.20;96.90
212;DHT22;16228;48.800;9.002;2023-03-12T07:35:55;4.20;96.90
212;DHT22;16228;48.800;9.002;2023-03-12T07:38:22;4.40;96.90
212;DHT22;16228;48.800;9.002;2023-03-12T07:40:50;4.60;96.90
212;DHT22;16228;48.800;9.002;2023-03-12T07:43:17;4.80;96.90
212;DHT22;16228;48.800;9.002;2023-03-12T07:45:45;4.90;96.90
212;DHT22;16228;48.800;9.002;2023-03-12T07:48:12;4.90;96.90
212;DHT22;16228;48.800;9.002;2023-03-12T07:50:41;5.00;96.90
212;DHT22;16228;48.800;9.002;2023-03-12T07:53:08;5.30;96.90
212;DHT22;16228;48.800;9.002;2023-03-12T07:55:35;5.60;96.90
212;DHT22;16228;48.800;9.002;2023-03-12T07:58:02;5.70;96.90
212;DHT22;16228;48.800;9.002;2023-03-12T08:00:30;6.00;96.90
212;DHT22;16228;48.800;9.002;2023-03-12T08:02:57;6.10;96.90
212;DHT22;16228;48.800;9.002;2023-03-12T08:05:24;6.10;96.90
212;DHT22;16228;48.800;9.002;2023-03-12T08:07:53;6.00;96.90
212;DHT22;16228;48.800;9.002;2023-03-12T08:10:21;6.00;96.90
212;DHT22;16228;48.800;9.002;2023-03-12T08:12:48;6.10;96.90
212;DHT22;16228;48.800;9.002;2023-03-12T08:15:16;6.30;96.90
212;DHT22;16228;48.800;9.002;2023-03-12T08:17:43;6.30;96.90
212;DHT22;16228;48.800;9.002;2023-03-12T08:20:11;6.20;96.90
212;DHT22;16228;48.800;9.002;2023-03-12T08:22:39;6.10;96.90
212;DHT22;16228;48.800;9.002;2023-03-12T08:25:09;6.30;96.90
212;DHT22;16228;48.800;9.002;2023-03-12T08:27:36;6.40;96.90
212;DHT22;16228;48.800;9.002;2023-03-12T08:30:05;6.50;96.90
212;DHT22;16228;48.800;9.002;2023-03-12T08:32:32;6.50;96.90
212;DHT22;16228;48.800;9.002;2023-03-12T08:35:00;6.40;96.90
212;DHT22;16228;48.800;9.002;2023-03-12T08:37:30;6.40;96.90
212;DHT22;16228;48.800;9.002;2023-03-12T08:39:57;6.80;96.90
212;DHT22;16228;48.800;9.002;2023-03-12T08:42:26;7.20;96.90
212;DHT22;16228;48.800;9.002;2023-03-12T08:44:54;7.50;96.90
212;DHT22;16228;48.800;9.002;2023-03-12T08:47:21;7.50;96.90
212;DHT22;16228;48.800;9.002;2023-03-12T08:49:48;7.40;96.90
212;DHT22;16228;48.800;9.002;2023-03-12T08:52:16;7.40;96.90
212;DHT22;16228;48.800;9.002;2023-03-12T08:54:43;7.30;96.90
212;DHT22;16228;48.800;9.002;2023-03-12T08:57:10;7.10;96.90
212;DHT22;16228;48.800;9.002;2023-03-12T08:59:39;7.00;96.90
212;DHT22;16228;48.800;9.002;2023-03-12T09:02:06;6.90;96.90
212;DHT22;16228;48.800;9.002;2023-03-12T09:04:33;7.00;96.90
212;DHT22;16228;48.800;9.002;2023-03-12T09:07:00;6.90;96.90
212;DHT22;16228;48.800;9.002;2023-03-12T09:09:28;7.00;96.90
212;DHT22;16228;48.800;9.002;2023-03-12T09:11:55;7.20;96.90
212;DHT22;16228;48.800;9.002;2023-03-12T09:14:23;7.50;96.90
212;DHT22;16228;48.800;9.002;2023-03-12T09:16:51;7.60;96.90
212;DHT22;16228;48.800;9.002;2023-03-12T09:19:19;7.70;96.90
212;DHT22;16228;48.800;9.002;2023-03-12T09:21:46;7.90;96.90
212;DHT22;16228;48.800;9.002;2023-03-12T09:24:13;8.20;96.90
212;DHT22;16228;48.800;9.002;2023-03-12T09:26:41;8.30;96.90
212;DHT22;16228;48.800;9.002;2023-03-12T09:29:08;8.40;96.90
212;DHT22;16228;48.800;9.002;2023-03-12T09:31:35;8.50;96.90
212;DHT22;16228;48.800;9.002;2023-03-12T09:34:04;8.60;96.90
212;DHT22;16228;48.800;9.002;2023-03-12T09:36:32;8.60;96.90
212;DHT22;16228;48.800;9.002;2023-03-12T09:38:59;8.40;96.90
212;DHT22;16228;48.800;9.002;2023-03-12T09:41:29;8.40;96.90
212;DHT22;16228;48.800;9.002;2023-03-12T09:43:58;8.50;96.90
212;DHT22;16228;48.800;9.002;2023-03-12T09:46:32;8.50;96.90
212;DHT22;16228;48.800;9.002;2023-03-12T09:49:09;8.50;96.90
212;DHT22;16228;48.800;9.002;2023-03-12T09:51:39;8.70;96.90
212;DHT22;16228;48.800;9.002;2023-03-12T09:54:16;9.10;96.90
212;DHT22;16228;48.800;9.002;2023-03-12T09:56:48;9.60;96.90
212;DHT22;16228;48.800;9.002;2023-03-12T09:59:16;9.80;96.90
212;DHT22;16228;48.800;9.002;2023-03-12T10:01:49;9.90;96.90
212;DHT22;16228;48.800;9.002;2023-03-12T10:04:28;10.00;96.90
212;DHT22;16228;48.800;9.002;2023-03-12T10:07:03;10.00;96.90
212;DHT22;16228;48.800;9.002;2023-03-12T10:12:33;10.70;96.90
212;DHT22;16228;48.800;9.002;2023-03-12T10:15:16;11.20;96.90
212;DHT22;16228;48.800;9.002;2023-03-12T10:17:55;11.70;96.90
212;DHT22;16228;48.800;9.002;2023-03-12T10:20:54;12.00;96.90
212;DHT22;16228;48.800;9.002;2023-03-12T10:23:37;12.20;96.90
212;DHT22;16228;48.800;9.002;2023-03-12T10:26:11;11.80;96.90
212;DHT22;16228;48.800;9.002;2023-03-12T10:28:44;11.40;96.90
212;DHT22;16228;48.800;9.002;2023-03-12T10:31:17;11.00;96.90
212;DHT22;16228;48.800;9.002;2023-03-12T10:33:47;10.80;96.90
212;DHT22;16228;48.800;9.002;2023-03-12T10:36:24;10.70;96.90
212;DHT22;16228;48.800;9.002;2023-03-12T10:38:52;10.60;96.90
212;DHT22;16228;48.800;9.002;2023-03-12T10:41:21;10.30;96.90
212;DHT22;16228;48.800;9.002;2023-03-12T10:43:50;10.00;96.90
212;DHT22;16228;48.800;9.002;2023-03-12T10:49:26;9.50;96.90
212;DHT22;16228;48.800;9.002;2023-03-12T10:51:58;9.50;96.90
212;DHT22;16228;48.800;9.002;2023-03-12T10:54:32;9.60;96.90
212;DHT22;16228;48.800;9.002;2023-03-12T10:56:59;9.60;96.90
212;DHT22;16228;48.800;9.002;2023-03-12T10:59:29;9.60;96.90
212;DHT22;16228;48.800;9.002;2023-03-12T11:01:57;9.60;96.90
212;DHT22;16228;48.800;9.002;2023-03-12T11:04:26;9.60;96.90
212;DHT22;16228;48.800;9.002;2023-03-12T11:07:17;9.60;96.90
212;DHT22;16228;48.800;9.002;2023-03-12T11:09:45;9.80;96.90
212;DHT22;16228;48.800;9.002;2023-03-12T11:12:24;10.10;96.90
212;DHT22;16228;48.800;9.002;2023-03-12T11:14:52;10.80;96.90
212;DHT22;16228;48.800;9.002;2023-03-12T11:17:20;11.10;96.90
212;DHT22;16228;48.800;9.002;2023-03-12T11:19:48;11.20;96.90
212;DHT22;16228;48.800;9.002;2023-03-12T11:22:26;11.10;96.90
212;DHT22;16228;48.800;9.002;2023-03-12T11:24:56;11.10;96.90
212;DHT22;16228;48.800;9.002;2023-03-12T11:27:30;11.10;96.90
212;DHT22;16228;48.800;9.002;2023-03-12T11:30:04;11.00;96.90
212;DHT22;16228;48.800;9.002;2023-03-12T11:32:35;11.00;96.90
212;DHT22;16228;48.800;9.002;2023-03-12T11:35:09;11.00;96.90
212;DHT22;16228;48.800;9.002;2023-03-12T11:37:44;11.10;96.90
212;DHT22;16228;48.800;9.002;2023-03-12T11:40:20;11.00;96.90
212;DHT22;16228;48.800;9.002;2023-03-12T11:43:05;11.10;96.90
212;DHT22;16228;48.800;9.002;2023-03-12T11:45:41;11.20;96.90
212;DHT22;16228;48.800;9.002;2023-03-12T11:48:17;11.20;96.90
212;DHT22;16228;48.800;9.002;2023-03-12T11:50:56;11.40;96.90
212;DHT22;16228;48.800;9.002;2023-03-12T11:53:58;11.50;96.90
212;DHT22;16228;48.800;9.002;2023-03-12T11:56:33;11.60;96.90
212;DHT22;16228;48.800;9.002;2023-03-12T11:59:15;11.60;96.90
212;DHT22;16228;48.800;9.002;2023-03-12T12:01:55;11.70;96.90
212;DHT22;16228;48.800;9.002;2023-03-12T12:04:43;11.70;96.90
212;DHT22;16228;48.800;9.002;2023-03-12T12:07:18;11.70;96.90
212;DHT22;16228;48.800;9.002;2023-03-12T12:09:56;11.70;96.90
212;DHT22;16228;48.800;9.002;2023-03-12T12:12:40;11.80;96.90
212;DHT22;16228;48.800;9.002;2023-03-12T12:15:17;12.00;96.90
212;DHT22;16228;48.800;9.002;2023-03-12T12:17:55;12.40;96.90
212;DHT22;16228;48.800;9.002;2023-03-12T12:20:32;12.50;96.90
212;DHT22;16228;48.800;9.002;2023-03-12T12:23:14;12.50;96.90
212;DHT22;16228;48.800;9.002;2023-03-12T12:25:54;12.60;96.90
212;DHT22;16228;48.800;9.002;2023-03-12T12:28:33;12.50;96.90
212;DHT22;16228;48.800;9.002;2023-03-12T12:31:17;12.30;96.90
212;DHT22;16228;48.800;9.002;2023-03-12T12:34:07;12.30;96.90
212;DHT22;16228;48.800;9.002;2023-03-12T12:36:36;12.30;96.90
212;DHT22;16228;48.800;9.002;2023-03-12T12:39:10;12.40;96.90
212;DHT22;16228;48.800;9.002;2023-03-12T12:41:43;12.30;96.90
212;DHT22;16228;48.800;9.002;2023-03-12T12:44:15;12.40;96.90
212;DHT22;16228;48.800;9.002;2023-03-12T12:46:46;12.50;96.90
212;DHT22;16228;48.800;9.002;2023-03-12T12:49:18;12.40;96.90
212;DHT22;16228;48.800;9.002;2023-03-12T12:51:50;12.40;96.90
212;DHT22;16228;48.800;9.002;2023-03-12T12:54:22;12.30;96.90
212;DHT22;16228;48.800;9.002;2023-03-12T12:56:59;12.10;96.90
212;DHT22;16228;48.800;9.002;2023-03-12T12:59:35;12.10;96.90
212;DHT22;16228;48.800;9.002;2023-03-12T13:02:04;11.90;96.90
212;DHT22;16228;48.800;9.002;2023-03-12T13:04:39;11.80;96.90
212;DHT22;16228;48.800;9.002;2023-03-12T13:07:28;11.60;96.90
212;DHT22;16228;48.800;9.002;2023-03-12T13:09:57;11.50;96.90
212;DHT22;16228;48.800;9.002;2023-03-12T13:12:28;11.70;96.90
212;DHT22;16228;48.800;9.002;2023-03-12T13:14:56;12.60;96.90
212;DHT22;16228;48.800;9.002;2023-03-12T13:17:29;14.10;96.90
212;DHT22;16228;48.800;9.002;2023-03-12T13:20:12;15.60;96.90
212;DHT22;16228;48.800;9.002;2023-03-12T13:23:23;16.20;96.90
212;DHT22;16228;48.800;9.002;2023-03-12T13:25:59;15.40;96.90
212;DHT22;16228;48.800;9.002;2023-03-12T13:28:34;14.60;96.90
212;DHT22;16228;48.800;9.002;2023-03-12T13:31:02;13.90;96.90
212;DHT22;16228;48.800;9.002;2023-03-12T13:33:52;13.50;96.90
212;DHT22;16228;48.800;9.002;2023-03-12T13:36:22;13.10;96.90
212;DHT22;16228;48.800;9.002;2023-03-12T13:38:55;12.90;96.90
212;DHT22;16228;48.800;9.002;2023-03-12T13:41:31;12.60;96.90
212;DHT22;16228;48.800;9.002;2023-03-12T13:43:59;12.40;96.90
212;DHT22;16228;48.800;9.002;2023-03-12T13:46:39;12.40;96.90
212;DHT22;16228;48.800;9.002;2023-03-12T13:49:14;12.70;96.90
212;DHT22;16228;48.800;9.002;2023-03-12T13:51:54;13.10;96.90
212;DHT22;16228;48.800;9.002;2023-03-12T13:54:26;13.50;96.90
212;DHT22;16228;48.800;9.002;2023-03-12T13:57:00;13.50;96.90
212;DHT22;16228;48.800;9.002;2023-03-12T13:59:29;13.50;96.90
212;DHT22;16228;48.800;9.002;2023-03-12T14:02:01;13.30;96.90
212;DHT22;16228;48.800;9.002;2023-03-12T14:04:36;12.90;96.90
212;DHT22;16228;48.800;9.002;2023-03-12T14:07:32;12.50;96.90
212;DHT22;16228;48.800;9.002;2023-03-12T14:10:18;12.40;96.90
212;DHT22;16228;48.800;9.002;2023-03-12T14:12:54;12.10;96.90
212;DHT22;16228;48.800;9.002;2023-03-12T14:15:30;12.00;96.90
212;DHT22;16228;48.800;9.002;2023-03-12T14:18:01;11.90;96.90
212;DHT22;16228;48.800;9.002;2023-03-12T14:20:36;11.90;96.90
212;DHT22;16228;48.800;9.002;2023-03-12T14:23:07;11.90;96.90
212;DHT22;16228;48.800;9.002;2023-03-12T14:25:41;12.00;96.90
212;DHT22;16228;48.800;9.002;2023-03-12T14:28:12;12.40;96.90
212;DHT22;16228;48.800;9.002;2023-03-12T14:30:43;13.00;96.90
212;DHT22;16228;48.800;9.002;2023-03-12T14:33:15;13.30;96.90
212;DHT22;16228;48.800;9.002;2023-03-12T14:35:46;13.30;96.90
212;DHT22;16228;48.800;9.002;2023-03-12T14:38:19;13.30;96.90
212;DHT22;16228;48.800;9.002;2023-03-12T14:40:52;13.30;96.90
212;DHT22;16228;48.800;9.002;2023-03-12T14:43:24;13.10;96.90
212;DHT22;16228;48.800;9.002;2023-03-12T14:46:01;13.20;96.90
212;DHT22;16228;48.800;9.002;2023-03-12T14:48:36;13.30;96.90
212;DHT22;16228;48.800;9.002;2023-03-12T14:51:06;13.30;96.90
212;DHT22;16228;48.800;9.002;2023-03-12T14:53:34;13.30;96.90
212;DHT22;16228;48.800;9.002;2023-03-12T14:56:04;13.30;96.90
212;DHT22;16228;48.800;9.002;2023-03-12T14:58:33;13.30;96.90
212;DHT22;16228;48.800;9.002;2023-03-12T15:01:04;13.50;96.90
212;DHT22;16228;48.800;9.002;2023-03-12T15:03:35;13.90;96.90
212;DHT22;16228;48.800;9.002;2023-03-12T15:06:14;13.80;96.90
212;DHT22;16228;48.800;9.002;2023-03-12T15:08:43;13.70;96.90
212;DHT22;16228;48.800;9.002;2023-03-12T15:11:11;13.30;96.90
212;DHT22;16228;48.800;9.002;2023-03-12T15:13:39;13.00;96.90
212;DHT22;16228;48.800;9.002;2023-03-12T15:16:06;12.80;96.90
212;DHT22;16228;48.800;9.002;2023-03-12T15:18:34;12.70;96.90
212;DHT22;16228;48.800;9.002;2023-03-12T15:21:02;12.50;96.90
212;DHT22;16228;48.800;9.002;2023-03-12T15:23:32;12.40;96.90
212;DHT22;16228;48.800;9.002;2023-03-12T15:26:29;12.30;96.90
212;DHT22;16228;48.800;9.002;2023-03-12T15:28:58;12.30;96.90
212;DHT22;16228;48.800;9.002;2023-03-12T15:31:27;12.40;96.90
212;DHT22;16228;48.800;9.002;2023-03-12T15:34:06;12.40;96.90
212;DHT22;16228;48.800;9.002;2023-03-12T15:36:34;12.40;96.90
212;DHT22;16228;48.800;9.002;2023-03-12T15:39:12;12.50;96.90
212;DHT22;16228;48.800;9.002;2023-03-12T15:41:42;12.60;96.90
212;DHT22;16228;48.800;9.002;2023-03-12T15:44:17;12.50;96.90
212;DHT22;16228;48.800;9.002;2023-03-12T15:46:46;12.40;96.90
212;DHT22;16228;48.800;9.002;2023-03-12T15:49:21;12.20;96.90
212;DHT22;16228;48.800;9.002;2023-03-12T15:52:23;12.10;96.90
212;DHT22;16228;48.800;9.002;2023-03-12T15:55:02;12.10;96.90
212;DHT22;16228;48.800;9.002;2023-03-12T15:57:30;12.10;96.90
212;DHT22;16228;48.800;9.002;2023-03-12T16:00:20;12.10;96.90
212;DHT22;16228;48.800;9.002;2023-03-12T16:02:53;12.00;96.90
212;DHT22;16228;48.800;9.002;2023-03-12T16:05:21;12.00;96.90
212;DHT22;16228;48.800;9.002;2023-03-12T16:07:49;12.00;96.90
212;DHT22;16228;48.800;9.002;2023-03-12T16:10:19;12.00;96.90
212;DHT22;16228;48.800;9.002;2023-03-12T16:12:48;12.00;96.90
212;DHT22;16228;48.800;9.002;2023-03-12T16:15:26;12.00;96.90
212;DHT22;16228;48.800;9.002;2023-03-12T16:17:53;12.00;96.90
212;DHT22;16228;48.800;9.002;2023-03-12T16:20:20;12.00;96.90
212;DHT22;16228;48.800;9.002;2023-03-12T16:22:48;12.00;96.90
212;DHT22;16228;48.800;9.002;2023-03-12T16:25:17;11.90;96.90
212;DHT22;16228;48.800;9.002;2023-03-12T16:27:47;11.80;96.90
212;DHT22;16228;48.800;9.002;2023-03-12T16:30:17;11.60;96.90
212;DHT22;16228;48.800;9.002;2023-03-12T16:32:46;11.60;96.90
212;DHT22;16228;48.800;9.002;2023-03-12T16:35:14;11.60;96.90